sensor_id;sensor_type;location;lat;lon;timestamp;pressure;altitude;pressure_sealevel;temperature;humidity
37648;BME280;23490;53.656;10.076;2023-04-03T00:02:17;99806.28;;;-145.95;91.85
37648;BME280;23490;53.656;10.076;2023-04-03T00:04:43;99793.91;;;-145.95;92.66
37648;BME280;23490;53.656;10.076;2023-04-03T00:07:08;99802.16;;;-145.95;92.06
37648;BME280;23490;53.656;10.076;2023-04-03T00:09:34;99818.69;;;-145.95;92.37
37648;BME280;23490;53.656;10.076;2023-04-03T00:12:02;99764.97;;;-145.95;93.00
37648;BME280;23490;53.656;10.076;2023-04-03T00:14:28;99822.81;;;-145.95;93.39
37648;BME280;23490;53.656;10.076;2023-04-03T00:16:53;99793.91;;;-145.95;93.43
37648;BME280;23490;53.656;10.076;2023-04-03T00:19:18;99771.19;;;-145.95;94.18
37648;BME280;23490;53.656;10.076;2023-04-03T00:21:44;99798.03;;;-145.95;92.79
37648;BME280;23490;53.656;10.076;2023-04-03T00:24:10;99789.75;;;-145.95;93.30
37648;BME280;23490;53.656;10.076;2023-04-03T00:26:36;99810.41;;;-145.95;92.70
37648;BME280;23490;53.656;10.076;2023-04-03T00:29:02;99808.34;;;-145.95;93.71
37648;BME280;23490;53.656;10.076;2023-04-03T00:31:28;99835.19;;;-145.95;94.70
37648;BME280;23490;53.656;10.076;2023-04-03T00:33:53;99818.69;;;-145.95;94.67
37648;BME280;23490;53.656;10.076;2023-04-03T00:36:18;99843.47;;;-145.95;95.36
37648;BME280;23490;53.656;10.076;2023-04-03T00:38:44;99793.91;;;-145.95;94.91
37648;BME280;23490;53.656;10.076;2023-04-03T00:41:10;99847.59;;;-145.95;95.63
37648;BME280;23490;53.656;10.076;2023-04-03T00:43:35;99847.59;;;-145.95;96.56
37648;BME280;23490;53.656;10.076;2023-04-03T00:46:01;99845.53;;;-145.95;96.16
37648;BME280;23490;53.656;10.076;2023-04-03T00:48:34;99818.69;;;-145.95;96.59
37648;BME280;23490;53.656;10.076;2023-04-03T00:51:04;99831.06;;;-145.95;97.72
37648;BME280;23490;53.656;10.076;2023-04-03T00:53:35;99826.94;;;-145.95;97.17
37648;BME280;23490;53.656;10.076;2023-04-03T00:56:05;99816.63;;;-145.95;96.64
37648;BME280;23490;53.656;10.076;2023-04-03T00:58:44;99831.06;;;-145.95;96.76
37648;BME280;23490;53.656;10.076;2023-04-03T01:01:15;99829.00;;;-145.95;96.87
37648;BME280;23490;53.656;10.076;2023-04-03T01:03:41;99822.81;;;-145.95;96.07
37648;BME280;23490;53.656;10.076;2023-04-03T01:06:10;99816.63;;;-145.95;95.91
37648;BME280;23490;53.656;10.076;2023-04-03T01:08:35;99845.53;;;-145.95;95.69
37648;BME280;23490;53.656;10.076;2023-04-03T01:11:01;99855.84;;;-145.95;96.11
37648;BME280;23490;53.656;10.076;2023-04-03T01:13:31;99831.06;;;-145.95;96.17
37648;BME280;23490;53.656;10.076;2023-04-03T01:16:03;99829.00;;;-145.95;96.09
37648;BME280;23490;53.656;10.076;2023-04-03T01:18:29;99851.72;;;-145.95;96.46
37648;BME280;23490;53.656;10.076;2023-04-03T01:26:31;99837.28;;;-145.95;96.71
37648;BME280;23490;53.656;10.076;2023-04-03T01:28:59;99847.59;;;-145.95;96.47
37648;BME280;23490;53.656;10.076;2023-04-03T01:34:00;99843.47;;;-145.95;96.29
37648;BME280;23490;53.656;10.076;2023-04-03T01:36:30;99860.00;;;-145.95;95.76
37648;BME280;23490;53.656;10.076;2023-04-03T01:38:56;99826.94;;;-145.95;97.51
37648;BME280;23490;53.656;10.076;2023-04-03T01:41:23;99822.81;;;-145.95;97.76
37648;BME280;23490;53.656;10.076;2023-04-03T01:43:48;99849.66;;;-145.95;97.63
37648;BME280;23490;53.656;10.076;2023-04-03T01:46:15;99802.16;;;-145.95;97.72
37648;BME280;23490;53.656;10.076;2023-04-03T01:48:41;99847.59;;;-145.95;98.72
37648;BME280;23490;53.656;10.076;2023-04-03T01:51:07;99822.81;;;-145.95;97.22
37648;BME280;23490;53.656;10.076;2023-04-03T01:53:33;99841.41;;;-145.95;97.80
37648;BME280;23490;53.656;10.076;2023-04-03T01:55:58;99845.53;;;-145.95;97.22
37648;BME280;23490;53.656;10.076;2023-04-03T01:58:24;99843.47;;;-145.95;96.26
37648;BME280;23490;53.656;10.076;2023-04-03T02:00:50;99839.34;;;-145.95;96.24
37648;BME280;23490;53.656;10.076;2023-04-03T02:03:16;99893.03;;;-145.95;96.81
37648;BME280;23490;53.656;10.076;2023-04-03T02:05:41;99849.66;;;-145.95;97.07
37648;BME280;23490;53.656;10.076;2023-04-03T02:08:09;99845.53;;;-145.95;97.58
37648;BME280;23490;53.656;10.076;2023-04-03T02:10:35;99810.41;;;-145.95;96.77
37648;BME280;23490;53.656;10.076;2023-04-03T02:13:00;99847.59;;;-145.95;96.27
37648;BME280;23490;53.656;10.076;2023-04-03T02:15:26;99847.59;;;-145.95;96.84
37648;BME280;23490;53.656;10.076;2023-04-03T02:17:52;99831.06;;;-145.95;97.73
37648;BME280;23490;53.656;10.076;2023-04-03T02:20:17;99851.72;;;-145.95;97.73
37648;BME280;23490;53.656;10.076;2023-04-03T02:22:43;99851.72;;;-145.95;98.25
37648;BME280;23490;53.656;10.076;2023-04-03T02:25:09;99847.59;;;-145.95;97.87
37648;BME280;23490;53.656;10.076;2023-04-03T02:27:35;99851.72;;;-145.95;97.02
37648;BME280;23490;53.656;10.076;2023-04-03T02:30:01;99860.00;;;-145.95;98.07
37648;BME280;23490;53.656;10.076;2023-04-03T02:32:26;99839.34;;;-145.95;97.87
37648;BME280;23490;53.656;10.076;2023-04-03T02:34:51;99855.84;;;-145.95;97.32
37648;BME280;23490;53.656;10.076;2023-04-03T02:37:17;99814.56;;;-145.95;97.27
37648;BME280;23490;53.656;10.076;2023-04-03T02:39:43;99833.13;;;-145.95;96.92
37648;BME280;23490;53.656;10.076;2023-04-03T02:42:08;99868.25;;;-145.95;98.29
37648;BME280;23490;53.656;10.076;2023-04-03T02:44:33;99855.84;;;-145.95;97.93
37648;BME280;23490;53.656;10.076;2023-04-03T02:46:59;99872.38;;;-145.95;97.04
37648;BME280;23490;53.656;10.076;2023-04-03T02:49:24;99843.47;;;-145.95;96.83
37648;BME280;23490;53.656;10.076;2023-04-03T02:51:49;99851.72;;;-145.95;96.69
37648;BME280;23490;53.656;10.076;2023-04-03T02:54:16;99835.19;;;-145.95;97.09
37648;BME280;23490;53.656;10.076;2023-04-03T02:56:41;99880.66;;;-145.95;98.10
37648;BME280;23490;53.656;10.076;2023-04-03T02:59:08;99847.59;;;-145.95;98.72
37648;BME280;23490;53.656;10.076;2023-04-03T03:01:34;99845.53;;;-145.95;98.07
37648;BME280;23490;53.656;10.076;2023-04-03T03:04:00;99839.34;;;-145.95;98.04
37648;BME280;23490;53.656;10.076;2023-04-03T03:06:26;99872.38;;;-145.95;98.51
37648;BME280;23490;53.656;10.076;2023-04-03T03:08:51;99880.66;;;-145.95;98.26
37648;BME280;23490;53.656;10.076;2023-04-03T03:11:18;99882.72;;;-145.95;98.64
37648;BME280;23490;53.656;10.076;2023-04-03T03:13:44;99868.25;;;-145.95;97.85
37648;BME280;23490;53.656;10.076;2023-04-03T03:16:10;99864.13;;;-145.95;98.01
37648;BME280;23490;53.656;10.076;2023-04-03T03:18:36;99851.72;;;-145.95;97.87
37648;BME280;23490;53.656;10.076;2023-04-03T03:21:03;99860.00;;;-145.95;98.45
37648;BME280;23490;53.656;10.076;2023-04-03T03:23:30;99868.25;;;-145.95;97.49
37648;BME280;23490;53.656;10.076;2023-04-03T03:26:10;99860.00;;;-145.95;97.74
37648;BME280;23490;53.656;10.076;2023-04-03T03:28:36;99884.78;;;-145.95;98.04
37648;BME280;23490;53.656;10.076;2023-04-03T03:31:03;99860.00;;;-145.95;98.29
37648;BME280;23490;53.656;10.076;2023-04-03T03:33:28;99864.13;;;-145.95;98.50
37648;BME280;23490;53.656;10.076;2023-04-03T03:35:54;99864.13;;;-145.95;98.06
37648;BME280;23490;53.656;10.076;2023-04-03T03:38:20;99841.41;;;-145.95;97.49
37648;BME280;23490;53.656;10.076;2023-04-03T03:40:47;99876.50;;;-145.95;97.12
37648;BME280;23490;53.656;10.076;2023-04-03T03:43:15;99860.00;;;-145.95;97.81
37648;BME280;23490;53.656;10.076;2023-04-03T03:45:41;99880.66;;;-145.95;97.06
37648;BME280;23490;53.656;10.076;2023-04-03T03:48:07;99884.78;;;-145.95;97.99
37648;BME280;23490;53.656;10.076;2023-04-03T03:50:32;99864.13;;;-145.95;97.43
37648;BME280;23490;53.656;10.076;2023-04-03T03:52:57;99882.72;;;-145.95;96.78
37648;BME280;23490;53.656;10.076;2023-04-03T03:55:23;99826.94;;;-145.95;96.94
37648;BME280;23490;53.656;10.076;2023-04-03T03:57:48;99864.13;;;-145.95;97.49
37648;BME280;23490;53.656;10.076;2023-04-03T04:00:14;99895.09;;;-145.95;97.29
37648;BME280;23490;53.656;10.076;2023-04-03T04:02:42;99897.16;;;-145.95;98.10
37648;BME280;23490;53.656;10.076;2023-04-03T04:05:08;99890.97;;;-145.95;98.76
37648;BME280;23490;53.656;10.076;2023-04-03T04:07:33;99831.06;;;-145.95;98.72
37648;BME280;23490;53.656;10.076;2023-04-03T04:09:59;99860.00;;;-145.95;98.57
37648;BME280;23490;53.656;10.076;2023-04-03T04:12:24;99872.38;;;-145.95;98.10
37648;BME280;23490;53.656;10.076;2023-04-03T04:14:50;99845.53;;;-145.95;98.50
37648;BME280;23490;53.656;10.076;2023-04-03T04:17:17;99874.44;;;-145.95;98.40
37648;BME280;23490;53.656;10.076;2023-04-03T04:19:43;99946.75;;;-145.95;98.71
37648;BME280;23490;53.656;10.076;2023-04-03T04:22:08;99897.16;;;-145.95;99.31
37648;BME280;23490;53.656;10.076;2023-04-03T04:24:34;99880.66;;;-145.95;98.79
37648;BME280;23490;53.656;10.076;2023-04-03T04:26:59;99890.97;;;-145.95;97.70
37648;BME280;23490;53.656;10.076;2023-04-03T04:29:25;99864.13;;;-145.95;97.77
37648;BME280;23490;53.656;10.076;2023-04-03T04:31:50;99888.91;;;-145.95;98.12
37648;BME280;23490;53.656;10.076;2023-04-03T04:34:16;99888.91;;;-145.95;97.48
37648;BME280;23490;53.656;10.076;2023-04-03T04:36:41;99860.00;;;-145.95;97.00
37648;BME280;23490;53.656;10.076;2023-04-03T04:39:08;99868.25;;;-145.95;97.12
37648;BME280;23490;53.656;10.076;2023-04-03T04:41:35;99888.91;;;-145.95;97.78
37648;BME280;23490;53.656;10.076;2023-04-03T04:44:01;99890.97;;;-145.95;98.55
37648;BME280;23490;53.656;10.076;2023-04-03T04:46:26;99851.72;;;-145.95;98.28
37648;BME280;23490;53.656;10.076;2023-04-03T04:48:51;99864.13;;;-145.95;98.12
37648;BME280;23490;53.656;10.076;2023-04-03T04:51:17;99897.16;;;-145.95;97.44
37648;BME280;23490;53.656;10.076;2023-04-03T04:53:42;99888.91;;;-145.95;97.39
37648;BME280;23490;53.656;10.076;2023-04-03T04:56:11;99872.38;;;-145.95;98.82
37648;BME280;23490;53.656;10.076;2023-04-03T04:58:37;99897.16;;;-145.95;99.38
37648;BME280;23490;53.656;10.076;2023-04-03T05:01:04;99882.72;;;-145.95;99.21
37648;BME280;23490;53.656;10.076;2023-04-03T05:03:30;99880.66;;;-145.95;99.90
37648;BME280;23490;53.656;10.076;2023-04-03T05:05:56;99913.69;;;-145.95;100.00
37648;BME280;23490;53.656;10.076;2023-04-03T05:08:21;99888.91;;;-145.95;100.00
37648;BME280;23490;53.656;10.076;2023-04-03T05:10:47;99886.84;;;-145.95;100.00
37648;BME280;23490;53.656;10.076;2023-04-03T05:13:13;99888.91;;;-145.95;100.00
37648;BME280;23490;53.656;10.076;2023-04-03T05:15:38;99868.25;;;-145.95;99.90
37648;BME280;23490;53.656;10.076;2023-04-03T05:18:04;99870.31;;;-145.95;99.57
37648;BME280;23490;53.656;10.076;2023-04-03T05:20:31;99917.81;;;-145.95;100.00
37648;BME280;23490;53.656;10.076;2023-04-03T05:22:56;99874.44;;;-145.95;99.94
37648;BME280;23490;53.656;10.076;2023-04-03T05:25:21;99880.66;;;-145.95;100.00
37648;BME280;23490;53.656;10.076;2023-04-03T05:27:48;99864.13;;;-145.95;100.00
37648;BME280;23490;53.656;10.076;2023-04-03T05:30:13;99909.56;;;-145.95;100.00
37648;BME280;23490;53.656;10.076;2023-04-03T05:32:39;99876.50;;;-145.95;100.00
37648;BME280;23490;53.656;10.076;2023-04-03T05:35:06;99868.25;;;-145.95;100.00
37648;BME280;23490;53.656;10.076;2023-04-03T05:37:33;99901.31;;;-145.95;100.00
37648;BME280;23490;53.656;10.076;2023-04-03T05:39:59;99868.25;;;-145.95;100.00
37648;BME280;23490;53.656;10.076;2023-04-03T05:42:27;99874.44;;;-145.95;100.00
37648;BME280;23490;53.656;10.076;2023-04-03T05:44:53;99921.94;;;-145.95;100.00
37648;BME280;23490;53.656;10.076;2023-04-03T05:47:19;99897.16;;;-145.95;100.00
37648;BME280;23490;53.656;10.076;2023-04-03T05:49:44;99901.31;;;-145.95;100.00
37648;BME280;23490;53.656;10.076;2023-04-03T05:52:28;99886.84;;;-145.95;100.00
37648;BME280;23490;53.656;10.076;2023-04-03T05:54:54;99888.91;;;-145.95;100.00
37648;BME280;23490;53.656;10.076;2023-04-03T05:57:19;99888.91;;;-145.95;100.00
37648;BME280;23490;53.656;10.076;2023-04-03T05:59:46;99841.41;;;-145.95;100.00
37648;BME280;23490;53.656;10.076;2023-04-03T06:02:14;99860.00;;;-145.95;100.00
37648;BME280;23490;53.656;10.076;2023-04-03T06:04:39;99872.38;;;-145.95;100.00
37648;BME280;23490;53.656;10.076;2023-04-03T06:07:05;99829.00;;;-145.95;100.00
37648;BME280;23490;53.656;10.076;2023-04-03T06:09:30;99849.66;;;-145.95;100.00
37648;BME280;23490;53.656;10.076;2023-04-03T06:11:56;99853.78;;;-145.95;100.00
37648;BME280;23490;53.656;10.076;2023-04-03T06:14:24;99897.16;;;-145.95;100.00
37648;BME280;23490;53.656;10.076;2023-04-03T06:16:50;99835.19;;;-145.95;100.00
37648;BME280;23490;53.656;10.076;2023-04-03T06:19:16;99857.94;;;-145.95;100.00
37648;BME280;23490;53.656;10.076;2023-04-03T06:21:41;99851.72;;;-145.95;100.00
37648;BME280;23490;53.656;10.076;2023-04-03T06:24:09;99839.34;;;-145.95;100.00
37648;BME280;23490;53.656;10.076;2023-04-03T06:26:35;99814.56;;;-145.95;100.00
37648;BME280;23490;53.656;10.076;2023-04-03T06:29:00;99851.72;;;-145.95;100.00
37648;BME280;23490;53.656;10.076;2023-04-03T06:31:27;99820.75;;;-145.95;100.00
37648;BME280;23490;53.656;10.076;2023-04-03T06:33:52;99789.75;;;-145.95;100.00
37648;BME280;23490;53.656;10.076;2023-04-03T06:36:19;99814.56;;;-145.95;100.00
37648;BME280;23490;53.656;10.076;2023-04-03T06:38:45;99787.69;;;-145.95;100.00
37648;BME280;23490;53.656;10.076;2023-04-03T06:41:11;99777.38;;;-145.95;100.00
37648;BME280;23490;53.656;10.076;2023-04-03T06:43:37;99802.16;;;-145.95;100.00
37648;BME280;23490;53.656;10.076;2023-04-03T06:46:02;99789.75;;;-145.95;100.00
37648;BME280;23490;53.656;10.076;2023-04-03T06:48:28;99764.97;;;-145.95;100.00
37648;BME280;23490;53.656;10.076;2023-04-03T06:50:54;99721.59;;;-145.95;100.00
37648;BME280;23490;53.656;10.076;2023-04-03T06:53:20;99756.72;;;-145.95;97.72
37648;BME280;23490;53.656;10.076;2023-04-03T06:55:45;99744.31;;;-145.95;95.78
37648;BME280;23490;53.656;10.076;2023-04-03T06:58:12;99731.94;;;-145.95;94.84
37648;BME280;23490;53.656;10.076;2023-04-03T07:00:38;99723.66;;;-145.95;94.00
37648;BME280;23490;53.656;10.076;2023-04-03T07:03:04;99715.41;;;-145.95;93.13
37648;BME280;23490;53.656;10.076;2023-04-03T07:05:29;99740.19;;;-145.95;92.35
37648;BME280;23490;53.656;10.076;2023-04-03T07:07:54;99686.50;;;-145.95;90.89
37648;BME280;23490;53.656;10.076;2023-04-03T07:10:20;99698.88;;;-145.95;90.72
37648;BME280;23490;53.656;10.076;2023-04-03T07:12:46;99721.59;;;-145.95;89.99
37648;BME280;23490;53.656;10.076;2023-04-03T07:15:12;99678.22;;;-145.95;88.94
37648;BME280;23490;53.656;10.076;2023-04-03T07:17:38;99649.31;;;-145.95;85.95
37648;BME280;23490;53.656;10.076;2023-04-03T07:20:04;99665.84;;;-145.95;85.49
37648;BME280;23490;53.656;10.076;2023-04-03T07:22:30;99603.88;;;-145.95;85.60
37648;BME280;23490;53.656;10.076;2023-04-03T07:24:55;99622.47;;;-145.95;83.62
37648;BME280;23490;53.656;10.076;2023-04-03T07:27:21;99645.19;;;-145.95;82.35
37648;BME280;23490;53.656;10.076;2023-04-03T07:29:46;99593.56;;;-145.95;81.46
37648;BME280;23490;53.656;10.076;2023-04-03T07:32:13;99612.16;;;-145.95;79.85
37648;BME280;23490;53.656;10.076;2023-04-03T07:34:38;99595.63;;;-145.95;78.35
37648;BME280;23490;53.656;10.076;2023-04-03T07:37:04;99566.69;;;-145.95;76.64
37648;BME280;23490;53.656;10.076;2023-04-03T07:39:30;99577.03;;;-145.95;78.69
37648;BME280;23490;53.656;10.076;2023-04-03T07:41:55;99548.13;;;-145.95;77.54
37648;BME280;23490;53.656;10.076;2023-04-03T07:44:21;99537.78;;;-145.95;77.40
37648;BME280;23490;53.656;10.076;2023-04-03T07:46:47;99508.88;;;-145.95;74.93
37648;BME280;23490;53.656;10.076;2023-04-03T07:49:13;99562.56;;;-145.95;72.31
37648;BME280;23490;53.656;10.076;2023-04-03T07:51:39;99455.19;;;-145.95;71.97
37648;BME280;23490;53.656;10.076;2023-04-03T07:54:05;99521.28;;;-145.95;68.09
37648;BME280;23490;53.656;10.076;2023-04-03T07:56:30;99515.06;;;-145.95;68.71
37648;BME280;23490;53.656;10.076;2023-04-03T07:58:56;99496.47;;;-145.95;67.99
37648;BME280;23490;53.656;10.076;2023-04-03T08:01:22;99492.34;;;-145.95;65.27
37648;BME280;23490;53.656;10.076;2023-04-03T08:03:48;99484.09;;;-145.95;64.42
37648;BME280;23490;53.656;10.076;2023-04-03T08:06:13;99494.41;;;-145.95;65.62
37648;BME280;23490;53.656;10.076;2023-04-03T08:08:40;99434.53;;;-145.95;66.19
37648;BME280;23490;53.656;10.076;2023-04-03T08:11:06;99409.75;;;-145.95;66.56
37648;BME280;23490;53.656;10.076;2023-04-03T08:13:33;99463.44;;;-145.95;64.10
37648;BME280;23490;53.656;10.076;2023-04-03T08:16:11;99418.00;;;-145.95;64.67
37648;BME280;23490;53.656;10.076;2023-04-03T08:18:37;99393.22;;;-145.95;63.89
37648;BME280;23490;53.656;10.076;2023-04-03T08:21:08;99343.66;;;-145.95;63.61
37648;BME280;23490;53.656;10.076;2023-04-03T08:23:34;99413.88;;;-145.95;63.16
37648;BME280;23490;53.656;10.076;2023-04-03T08:26:09;99387.03;;;-145.95;62.81
37648;BME280;23490;53.656;10.076;2023-04-03T08:28:38;99372.56;;;-145.95;59.81
37648;BME280;23490;53.656;10.076;2023-04-03T08:31:06;99339.53;;;-145.95;59.96
37648;BME280;23490;53.656;10.076;2023-04-03T08:33:32;99329.19;;;-145.95;58.96
37648;BME280;23490;53.656;10.076;2023-04-03T08:35:58;99292.03;;;-145.95;58.72
37648;BME280;23490;53.656;10.076;2023-04-03T08:38:24;99310.63;;;-145.95;58.74
37648;BME280;23490;53.656;10.076;2023-04-03T08:41:10;99343.66;;;-145.95;56.92
37648;BME280;23490;53.656;10.076;2023-04-03T08:43:53;99240.41;;;-145.95;58.51
37648;BME280;23490;53.656;10.076;2023-04-03T08:46:22;99252.78;;;-145.95;56.77
37648;BME280;23490;53.656;10.076;2023-04-03T08:48:51;99211.50;;;-145.95;54.21
37648;BME280;23490;53.656;10.076;2023-04-03T08:51:19;99186.72;;;-145.95;54.36
37648;BME280;23490;53.656;10.076;2023-04-03T08:54:00;99149.53;;;-145.95;51.85
37648;BME280;23490;53.656;10.076;2023-04-03T08:56:30;99157.81;;;-145.95;49.76
37648;BME280;23490;53.656;10.076;2023-04-03T08:58:58;99170.19;;;-145.95;50.10
37648;BME280;23490;53.656;10.076;2023-04-03T09:01:36;99143.34;;;-145.95;49.80
37648;BME280;23490;53.656;10.076;2023-04-03T09:04:10;99137.16;;;-145.95;45.88
37648;BME280;23490;53.656;10.076;2023-04-03T09:06:38;99166.06;;;-145.95;44.60
37648;BME280;23490;53.656;10.076;2023-04-03T09:11:50;99044.22;;;-145.95;46.93
37648;BME280;23490;53.656;10.076;2023-04-03T09:14:34;99029.78;;;-145.95;46.34
37648;BME280;23490;53.656;10.076;2023-04-03T09:17:17;99025.63;;;-145.95;45.57
37648;BME280;23490;53.656;10.076;2023-04-03T09:20:02;98916.19;;;-145.95;44.26
37648;BME280;23490;53.656;10.076;2023-04-03T09:22:32;99054.56;;;-145.95;40.62
37648;BME280;23490;53.656;10.076;2023-04-03T09:25:04;99005.00;;;-145.95;43.35
37648;BME280;23490;53.656;10.076;2023-04-03T09:27:31;98870.78;;;-145.95;40.92
37648;BME280;23490;53.656;10.076;2023-04-03T09:29:57;98876.97;;;-145.95;38.46
37648;BME280;23490;53.656;10.076;2023-04-03T09:32:30;98947.16;;;-145.95;39.04
37648;BME280;23490;53.656;10.076;2023-04-03T09:34:59;98905.88;;;-145.95;39.21
37648;BME280;23490;53.656;10.076;2023-04-03T09:37:41;98940.97;;;-145.95;39.50
37648;BME280;23490;53.656;10.076;2023-04-03T09:40:28;98889.34;;;-145.95;39.19
37648;BME280;23490;53.656;10.076;2023-04-03T09:42:59;98682.88;;;-145.95;38.61
37648;BME280;23490;53.656;10.076;2023-04-03T09:45:33;98893.47;;;-145.95;37.82
37648;BME280;23490;53.656;10.076;2023-04-03T09:50:57;98846.00;;;-145.95;36.75
37648;BME280;23490;53.656;10.076;2023-04-03T09:53:43;98645.69;;;-145.95;38.80
37648;BME280;23490;53.656;10.076;2023-04-03T09:58:42;98695.25;;;-145.95;36.52
37648;BME280;23490;53.656;10.076;2023-04-03T10:01:31;98748.94;;;-145.95;36.20
37648;BME280;23490;53.656;10.076;2023-04-03T10:04:10;98761.34;;;-145.95;37.03
37648;BME280;23490;53.656;10.076;2023-04-03T10:06:41;98546.59;;;-145.95;36.41
37648;BME280;23490;53.656;10.076;2023-04-03T10:09:19;98662.22;;;-145.95;38.02
37648;BME280;23490;53.656;10.076;2023-04-03T10:12:02;98765.47;;;-145.95;36.83
37648;BME280;23490;53.656;10.076;2023-04-03T10:14:30;98567.25;;;-145.95;37.32
37648;BME280;23490;53.656;10.076;2023-04-03T10:17:18;98759.25;;;-145.95;39.02
37648;BME280;23490;53.656;10.076;2023-04-03T10:19:53;98684.94;;;-145.95;38.02
37648;BME280;23490;53.656;10.076;2023-04-03T10:22:55;98616.78;;;-145.95;36.88
37648;BME280;23490;53.656;10.076;2023-04-03T10:25:53;98732.44;;;-145.95;36.49
37648;BME280;23490;53.656;10.076;2023-04-03T10:28:39;98635.38;;;-145.95;37.04
37648;BME280;23490;53.656;10.076;2023-04-03T10:31:25;98623.00;;;-145.95;36.05
37648;BME280;23490;53.656;10.076;2023-04-03T10:36:56;99000.84;;;-145.95;38.50
37648;BME280;23490;53.656;10.076;2023-04-03T10:42:25;98695.25;;;-145.95;38.70
37648;BME280;23490;53.656;10.076;2023-04-03T10:45:14;98625.06;;;-145.95;38.77
37648;BME280;23490;53.656;10.076;2023-04-03T10:50:27;98637.44;;;-145.95;38.88
37648;BME280;23490;53.656;10.076;2023-04-03T10:56:15;98728.28;;;-145.95;38.86
37648;BME280;23490;53.656;10.076;2023-04-03T10:59:10;98430.97;;;-145.95;36.79
37648;BME280;23490;53.656;10.076;2023-04-03T11:01:41;98377.28;;;-145.95;37.48
37648;BME280;23490;53.656;10.076;2023-04-03T11:04:13;98781.97;;;-145.95;37.09
37648;BME280;23490;53.656;10.076;2023-04-03T11:06:46;98616.78;;;-145.95;40.69
37648;BME280;23490;53.656;10.076;2023-04-03T11:09:28;98536.28;;;-145.95;38.81
37648;BME280;23490;53.656;10.076;2023-04-03T11:12:24;98418.59;;;-145.95;37.34
37648;BME280;23490;53.656;10.076;2023-04-03T11:14:51;98315.38;;;-145.95;37.57
37648;BME280;23490;53.656;10.076;2023-04-03T11:22:32;98484.66;;;-145.95;37.88
37648;BME280;23490;53.656;10.076;2023-04-03T11:25:04;98505.31;;;-145.95;39.78
37648;BME280;23490;53.656;10.076;2023-04-03T11:27:42;98497.03;;;-145.95;38.59
37648;BME280;23490;53.656;10.076;2023-04-03T11:30:22;98492.91;;;-145.95;35.83
37648;BME280;23490;53.656;10.076;2023-04-03T11:33:09;98437.16;;;-145.95;35.68
37648;BME280;23490;53.656;10.076;2023-04-03T11:36:03;98195.63;;;-145.95;35.52
37648;BME280;23490;53.656;10.076;2023-04-03T11:38:41;98558.97;;;-145.95;35.35
37648;BME280;23490;53.656;10.076;2023-04-03T11:41:10;98290.59;;;-145.95;35.70
37648;BME280;23490;53.656;10.076;2023-04-03T11:46:49;98703.53;;;-145.95;39.19
37648;BME280;23490;53.656;10.076;2023-04-03T12:08:52;98612.66;;;-145.95;41.60
37648;BME280;23490;53.656;10.076;2023-04-03T12:11:32;98476.41;;;-145.95;38.49
37648;BME280;23490;53.656;10.076;2023-04-03T12:16:28;98170.84;;;-145.95;35.98
37648;BME280;23490;53.656;10.076;2023-04-03T12:40:09;97974.72;;;-145.95;35.39
37648;BME280;23490;53.656;10.076;2023-04-03T12:48:26;97786.88;;;-145.95;34.21
37648;BME280;23490;53.656;10.076;2023-04-03T12:50:53;97881.84;;;-145.95;33.87
37648;BME280;23490;53.656;10.076;2023-04-03T12:53:25;97960.28;;;-145.95;34.37
37648;BME280;23490;53.656;10.076;2023-04-03T12:55:58;97927.25;;;-145.95;33.13
37648;BME280;23490;53.656;10.076;2023-04-03T12:58:43;97894.22;;;-145.95;33.51
37648;BME280;23490;53.656;10.076;2023-04-03T13:01:14;97774.50;;;-145.95;33.63
37648;BME280;23490;53.656;10.076;2023-04-03T13:03:48;97819.91;;;-145.95;33.21
37648;BME280;23490;53.656;10.076;2023-04-03T13:06:22;97568.06;;;-145.95;33.16
37648;BME280;23490;53.656;10.076;2023-04-03T13:08:50;97745.59;;;-145.95;33.00
37648;BME280;23490;53.656;10.076;2023-04-03T13:11:18;97749.72;;;-145.95;33.53
37648;BME280;23490;53.656;10.076;2023-04-03T13:14:03;97644.44;;;-145.95;33.24
37648;BME280;23490;53.656;10.076;2023-04-03T13:16:31;97877.69;;;-145.95;35.49
37648;BME280;23490;53.656;10.076;2023-04-03T13:18:57;97762.09;;;-145.95;34.93
37648;BME280;23490;53.656;10.076;2023-04-03T13:21:28;98637.44;;;-145.95;35.98
37648;BME280;23490;53.656;10.076;2023-04-03T13:23:57;98784.03;;;-145.95;35.48
37648;BME280;23490;53.656;10.076;2023-04-03T13:26:26;98090.34;;;-145.95;36.29
37648;BME280;23490;53.656;10.076;2023-04-03T13:28:54;98113.03;;;-145.95;35.89
37648;BME280;23490;53.656;10.076;2023-04-03T13:31:28;97749.72;;;-145.95;33.04
37648;BME280;23490;53.656;10.076;2023-04-03T13:36:30;97698.13;;;-145.95;32.49
37648;BME280;23490;53.656;10.076;2023-04-03T13:41:47;97914.84;;;-145.95;33.72
37648;BME280;23490;53.656;10.076;2023-04-03T13:51:52;97881.84;;;-145.95;33.65
37648;BME280;23490;53.656;10.076;2023-04-03T13:54:29;97919.00;;;-145.95;33.89
37648;BME280;23490;53.656;10.076;2023-04-03T13:56:57;98001.56;;;-145.95;33.79
37648;BME280;23490;53.656;10.076;2023-04-03T13:59:30;98106.84;;;-145.95;34.37
37648;BME280;23490;53.656;10.076;2023-04-03T14:04:46;97997.44;;;-145.95;33.94
37648;BME280;23490;53.656;10.076;2023-04-03T14:07:14;98063.50;;;-145.95;34.34
37648;BME280;23490;53.656;10.076;2023-04-03T14:09:41;98195.63;;;-145.95;35.26
37648;BME280;23490;53.656;10.076;2023-04-03T14:12:25;98261.69;;;-145.95;35.83
37648;BME280;23490;53.656;10.076;2023-04-03T14:14:52;98075.88;;;-145.95;34.95
37648;BME280;23490;53.656;10.076;2023-04-03T14:17:20;98282.31;;;-145.95;37.31
37648;BME280;23490;53.656;10.076;2023-04-03T14:19:47;98740.69;;;-145.95;35.77